createdAt,value
2023-01-28T02:15:19.841Z,55.70
2023-01-28T02:17:49.564Z,57.60
2023-01-28T02:20:23.269Z,57.60
2023-01-28T02:23:28.413Z,50.30
2023-01-28T02:26:01.865Z,54.80
2023-01-28T02:28:39.329Z,57.10
2023-01-28T02:33:49.670Z,58.60
2023-01-28T02:36:28.588Z,52.40
2023-01-28T02:38:58.765Z,53.40
2023-01-28T02:41:30.488Z,54.80
2023-01-28T02:44:02.628Z,53.30
2023-01-28T02:46:49.312Z,56.60
2023-01-28T02:49:45.175Z,57.90
2023-01-28T02:52:46.490Z,59.90
2023-01-28T02:55:41.495Z,54.90
2023-01-28T02:58:37.700Z,52.20
2023-01-28T03:01:23.569Z,57.70
2023-01-28T03:03:59.767Z,56.20
2023-01-28T03:06:34.547Z,53.10
2023-01-28T03:09:24.363Z,56.10
2023-01-28T03:12:38.439Z,56.80
2023-01-28T03:15:29.169Z,53.80
2023-01-28T03:18:26.125Z,57.20
2023-01-28T03:21:23.266Z,53.50
2023-01-28T03:24:16.437Z,57.80
2023-01-28T03:27:12.479Z,58.40
2023-01-28T03:30:00.420Z,54.20
2023-01-28T03:32:47.733Z,58.60
2023-01-28T03:35:34.501Z,51.10
2023-01-28T03:38:18.718Z,52.80
2023-01-28T03:40:55.390Z,55.60
2023-01-28T03:43:24.122Z,56.10
2023-01-28T03:45:52.621Z,62.90
2023-01-28T03:48:22.213Z,62.10
2023-01-28T03:51:00.466Z,58.80
2023-01-28T03:53:29.635Z,53.90
2023-01-28T03:55:58.917Z,48.50
2023-01-28T03:58:48.683Z,45.20
2023-01-28T04:01:17.050Z,55.20
2023-01-28T04:03:45.100Z,53.10
2023-01-28T04:06:19.283Z,49.00
2023-01-28T04:09:16.657Z,51.20
2023-01-28T04:11:54.694Z,48.10
2023-01-28T04:14:30.018Z,47.60
2023-01-28T04:17:24.903Z,46.80
2023-01-28T04:19:53.370Z,50.20
2023-01-28T04:22:22.222Z,51.50
2023-01-28T04:24:52.476Z,51.40
2023-01-28T04:27:20.722Z,52.10
2023-01-28T04:29:50.573Z,46.20
2023-01-28T04:32:40.517Z,49.70
2023-01-28T04:35:32.086Z,47.80
2023-01-28T04:38:13.009Z,47.90
2023-01-28T04:41:02.393Z,49.20
2023-01-28T04:43:34.241Z,48.50
2023-01-28T04:46:32.411Z,46.40
2023-01-28T04:49:07.751Z,47.80
2023-01-28T04:51:53.486Z,46.50
2023-01-28T04:54:45.024Z,44.90
2023-01-28T04:57:13.067Z,45.40
2023-01-28T04:59:41.190Z,48.60
2023-01-28T05:02:09.383Z,51.70
2023-01-28T05:04:37.554Z,52.00
2023-01-28T05:07:05.934Z,46.40
2023-01-28T05:09:37.376Z,47.20
2023-01-28T05:12:06.099Z,47.70
2023-01-28T05:14:34.573Z,46.70
2023-01-28T05:17:07.825Z,45.60
2023-01-28T05:19:37.980Z,48.40
2023-01-28T05:22:11.686Z,45.00
2023-01-28T05:24:44.015Z,45.90
2023-01-28T05:27:12.184Z,49.40
2023-01-28T05:29:40.269Z,48.60
2023-01-28T05:32:09.641Z,43.30
2023-01-28T05:34:37.808Z,41.90
2023-01-28T05:37:11.602Z,42.20
2023-01-28T05:39:40.282Z,43.80
2023-01-28T05:42:09.528Z,44.80
2023-01-28T05:44:42.508Z,44.40
2023-01-28T05:47:25.213Z,43.20
2023-01-28T05:50:01.015Z,48.30
2023-01-28T05:52:45.687Z,39.50
2023-01-28T05:55:23.361Z,38.00
2023-01-28T05:57:52.075Z,41.80
2023-01-28T06:00:23.191Z,43.20
2023-01-28T06:02:52.578Z,41.60
2023-01-28T06:05:21.607Z,47.00
2023-01-28T06:07:49.747Z,47.70
2023-01-28T06:10:18.227Z,42.50
2023-01-28T06:12:48.979Z,43.20
2023-01-28T06:15:40.194Z,35.60
2023-01-28T06:18:21.868Z,42.10
2023-01-28T06:20:50.920Z,35.90
2023-01-28T06:23:19.465Z,38.20
2023-01-28T06:25:47.478Z,42.00
2023-01-28T06:28:17.770Z,38.30
2023-01-28T06:30:49.435Z,51.00
2023-01-28T06:33:21.432Z,43.10
2023-01-28T06:35:49.849Z,41.00
2023-01-28T06:38:18.766Z,39.20
2023-01-28T06:40:55.788Z,38.60
2023-01-28T06:43:28.245Z,43.40
2023-01-28T06:45:57.091Z,42.70
2023-01-28T06:48:25.233Z,40.60
2023-01-28T06:50:57.114Z,43.30
2023-01-28T06:53:25.501Z,44.40
2023-01-28T06:55:53.800Z,38.10
2023-01-28T06:58:22.367Z,34.30
2023-01-28T07:00:50.686Z,39.80
2023-01-28T07:03:18.887Z,35.20
2023-01-28T07:05:47.047Z,38.20
2023-01-28T07:08:15.168Z,35.20
2023-01-28T07:10:44.074Z,38.20
2023-01-28T07:13:12.283Z,38.70
2023-01-28T07:15:41.890Z,33.60
2023-01-28T07:18:09.907Z,33.80
2023-01-28T07:20:37.878Z,39.00
2023-01-28T07:23:06.065Z,34.10
2023-01-28T07:25:34.808Z,31.40
2023-01-28T07:28:02.824Z,32.70
2023-01-28T07:30:31.634Z,37.60
2023-01-28T07:32:59.952Z,38.20
2023-01-28T07:35:28.055Z,36.80
2023-01-28T07:37:57.650Z,34.30
2023-01-28T07:40:26.443Z,36.00
2023-01-28T12:10:03.316Z,35.80
2023-01-28T12:12:41.807Z,37.40
2023-01-28T12:15:39.925Z,42.30
2023-01-28T12:18:12.243Z,40.90
2023-01-28T12:20:40.175Z,37.90
2023-01-28T12:23:12.514Z,37.10
2023-01-28T12:25:47.961Z,31.40
2023-01-28T12:28:25.855Z,33.00
2023-01-28T12:31:18.187Z,33.60
2023-01-28T12:33:56.624Z,33.80
2023-01-28T12:36:43.590Z,33.40
2023-01-28T12:39:20.434Z,34.50
2023-01-28T12:41:51.270Z,37.20
2023-01-28T12:44:23.765Z,34.70
2023-01-28T12:46:54.015Z,38.70
2023-01-28T12:49:40.596Z,40.90
2023-01-28T12:52:19.223Z,37.40
2023-01-28T12:55:21.250Z,37.20
2023-01-28T12:57:57.143Z,40.10
2023-01-28T13:00:39.520Z,42.20
2023-01-28T13:03:26.571Z,41.30
2023-01-28T13:06:02.916Z,36.20
2023-01-28T13:08:31.117Z,38.00
2023-01-28T13:11:00.484Z,38.30
2023-01-28T13:13:31.071Z,41.60
2023-01-28T13:15:59.908Z,33.80
2023-01-28T13:18:39.529Z,33.70
2023-01-28T13:21:25.203Z,34.20
2023-01-28T13:24:02.486Z,32.20
2023-01-28T13:26:38.452Z,32.50
2023-01-28T13:29:15.699Z,36.20
2023-01-28T13:31:45.238Z,31.00
2023-01-28T13:34:51.422Z,33.60
2023-01-28T13:37:32.159Z,32.30
2023-01-28T13:40:09.317Z,27.30
2023-01-28T13:42:37.395Z,32.30
2023-01-28T13:45:18.109Z,34.10
2023-01-28T13:47:48.093Z,34.20
2023-01-28T13:50:23.553Z,38.20
2023-01-28T13:53:25.650Z,35.90
2023-01-28T13:55:54.302Z,32.70
2023-01-28T13:58:30.994Z,33.20
2023-01-28T14:01:27.170Z,35.60
2023-01-28T14:04:22.761Z,31.60
2023-01-28T14:07:12.249Z,33.60
2023-01-28T14:09:49.159Z,31.60
2023-01-28T14:12:39.378Z,28.90
2023-01-28T14:15:23.129Z,32.50
2023-01-28T14:17:52.502Z,29.20
2023-01-28T14:20:27.578Z,28.10
2023-01-28T14:23:00.019Z,31.00
2023-01-28T14:25:49.862Z,31.50
2023-01-28T14:28:21.459Z,28.60
2023-01-28T14:30:57.853Z,30.80
2023-01-28T14:33:25.814Z,24.00
2023-01-28T14:35:53.737Z,27.90
2023-01-28T14:38:21.788Z,28.10
2023-01-28T14:40:52.730Z,29.30
2023-01-28T14:43:22.503Z,26.40
2023-01-28T14:45:53.282Z,27.30
2023-01-28T14:48:43.417Z,29.40
2023-01-28T14:51:18.887Z,28.20
2023-01-28T14:54:09.221Z,30.30
2023-01-28T14:57:08.626Z,28.40
2023-01-28T15:02:20.263Z,31.40
2023-01-28T15:04:49.835Z,30.80
2023-01-28T15:07:25.521Z,34.60
2023-01-28T15:10:07.734Z,36.40
2023-01-28T15:12:38.025Z,32.50
2023-01-28T15:15:11.687Z,29.60
2023-01-28T15:17:39.910Z,36.90
2023-01-28T15:20:09.055Z,32.20
2023-01-28T15:22:37.012Z,30.20
2023-01-28T15:25:07.453Z,31.50
2023-01-28T15:27:35.852Z,31.90
2023-01-28T15:30:27.822Z,33.90
2023-01-28T15:33:12.854Z,29.90
2023-01-28T15:35:48.194Z,33.60
2023-01-28T15:38:17.941Z,32.60
2023-01-28T15:40:55.207Z,29.40
2023-01-28T15:43:25.795Z,32.40
2023-01-28T15:45:57.050Z,31.60
2023-01-28T15:48:26.585Z,33.70
2023-01-28T15:51:02.604Z,30.30
2023-01-28T19:58:45.786Z,34.70
2023-01-28T20:01:14.861Z,45.20
2023-01-28T20:03:43.918Z,60.00
2023-01-28T20:06:13.703Z,52.10
2023-01-28T20:08:42.180Z,49.40
2023-01-28T20:11:14.972Z,38.70
2023-01-28T20:13:44.316Z,43.30
2023-01-28T20:16:17.833Z,37.30
2023-01-28T20:18:53.571Z,32.90
2023-01-28T20:21:21.654Z,31.80
2023-01-28T20:23:51.515Z,32.60
2023-01-28T20:26:24.020Z,32.90
2023-01-28T20:28:52.076Z,30.80
2023-01-28T20:31:20.718Z,26.90
2023-01-28T20:33:49.221Z,28.50
2023-01-28T20:36:17.303Z,26.80
2023-01-28T20:38:46.792Z,26.70
2023-01-28T20:41:16.766Z,26.90
2023-01-28T20:43:45.013Z,24.60
2023-01-28T20:46:21.340Z,27.30
2023-01-28T20:48:49.688Z,25.90
2023-01-28T20:51:19.214Z,31.40
2023-01-28T20:53:48.048Z,25.80
2023-01-28T20:56:19.486Z,26.50
2023-01-28T20:58:49.411Z,25.40
2023-01-28T21:01:28.344Z,27.90
2023-01-28T21:03:56.266Z,23.10
2023-01-28T21:06:26.678Z,24.70
2023-01-28T21:08:54.711Z,24.60
2023-01-28T21:11:23.290Z,26.40
2023-01-28T21:13:51.529Z,26.60
2023-01-28T21:16:19.758Z,23.80
2023-01-28T21:18:48.708Z,25.50
2023-01-28T21:21:18.006Z,26.30
2023-01-28T21:23:46.006Z,25.00
2023-01-28T21:26:15.628Z,24.60
2023-01-28T21:28:44.231Z,23.90
2023-01-28T21:31:17.052Z,25.90
2023-01-28T21:33:52.015Z,26.10
2023-01-28T21:36:20.038Z,26.50
2023-01-28T21:38:55.350Z,27.10
2023-01-28T21:41:24.672Z,22.30
2023-01-28T21:43:53.876Z,22.30
2023-01-28T21:46:27.000Z,22.40
2023-01-28T21:49:01.259Z,24.00
2023-01-28T21:51:36.114Z,24.70
2023-01-28T21:54:05.016Z,28.00
2023-01-28T21:56:33.549Z,26.60
2023-01-28T21:59:20.369Z,21.70
2023-01-28T22:01:48.361Z,22.80
2023-01-28T22:04:20.989Z,22.60
2023-01-28T22:06:49.428Z,26.70
2023-01-28T22:09:17.456Z,24.20
2023-01-28T22:11:46.644Z,23.30
2023-01-28T22:14:15.133Z,28.90
2023-01-28T22:16:43.427Z,26.60
2023-01-28T22:19:11.631Z,24.80
2023-01-28T22:21:43.713Z,24.80
2023-01-28T22:24:16.254Z,25.30
2023-01-28T22:26:45.482Z,28.40
2023-01-28T22:29:14.272Z,25.70
2023-01-28T22:31:42.423Z,27.40
2023-01-28T22:34:10.486Z,26.20
2023-01-28T22:36:38.362Z,28.00
2023-01-28T22:39:07.521Z,28.50
2023-01-28T22:41:35.560Z,28.50
2023-01-28T22:44:04.494Z,29.00
2023-01-28T22:46:33.500Z,30.70
2023-01-28T22:49:02.525Z,26.00
2023-01-28T22:51:32.081Z,30.40
2023-01-28T22:54:00.382Z,29.40
2023-01-28T22:56:29.453Z,27.40
2023-01-28T22:58:59.283Z,26.90
2023-01-28T23:01:27.783Z,28.30
2023-01-28T23:03:56.294Z,27.60
2023-01-28T23:06:28.077Z,27.30
2023-01-28T23:08:56.571Z,25.90
2023-01-28T23:11:28.316Z,24.00
2023-01-28T23:14:16.903Z,24.80
2023-01-28T23:17:03.617Z,29.50
2023-01-28T23:19:50.731Z,30.40
2023-01-28T23:22:42.666Z,29.50
2023-01-28T23:25:10.902Z,23.70
2023-01-28T23:27:38.815Z,25.00
2023-01-28T23:30:10.374Z,30.10
2023-01-28T23:32:44.009Z,22.10
2023-01-28T23:35:12.845Z,24.70
2023-01-28T23:37:41.642Z,24.60
2023-01-28T23:40:10.870Z,30.20
2023-01-28T23:42:38.958Z,28.60
2023-01-28T23:45:07.648Z,24.60
